Time;durP1;ratioP1;P1;durP2;ratioP2;P2;SDS_P1;SDS_P2;PMS_P1;PMS_P2;Temp;Humidity;BMP_temperature;BMP_pressure;BME280_temperature;BME280_humidity;BME280_pressure;Samples;Min_cycle;Max_cycle;Signal;HPM_P1;HPM_P2
2023/08/04 00:00:09;;;;;;;8.75;2.10;;;16.90;99.90;;;;;;5085479;28;20075;-71
2023/08/04 00:02:38;;;;;;;6.88;1.85;;;16.90;99.90;;;;;;5063359;28;20119;-70
2023/08/04 00:05:06;;;;;;;7.72;1.67;;;16.90;99.90;;;;;;5082708;28;20135;-71
2023/08/04 00:07:33;;;;;;;9.73;1.48;;;16.90;99.90;;;;;;5066246;28;20227;-71
2023/08/04 00:09:59;;;;;;;7.45;1.75;;;16.90;99.90;;;;;;5079929;28;20054;-71
2023/08/04 00:12:24;;;;;;;7.28;1.50;;;16.80;99.90;;;;;;5079163;28;20692;-71
2023/08/04 00:14:50;;;;;;;9.70;2.05;;;16.80;99.90;;;;;;5063814;28;20047;-72
2023/08/04 00:17:16;;;;;;;6.50;1.63;;;16.80;99.90;;;;;;5081465;28;20051;-72
2023/08/04 00:19:42;;;;;;;8.07;1.42;;;16.80;99.90;;;;;;5080488;28;20291;-71
2023/08/04 00:22:08;;;;;;;7.60;1.50;;;16.80;99.90;;;;;;5081921;28;20080;-72
2023/08/04 00:24:34;;;;;;;7.32;1.58;;;16.80;99.90;;;;;;5080049;28;20140;-72
2023/08/04 00:27:01;;;;;;;8.85;1.77;;;16.80;99.90;;;;;;5079602;28;20043;-72
2023/08/04 00:29:27;;;;;;;6.88;1.75;;;16.80;99.90;;;;;;5063292;28;20444;-72
2023/08/04 00:31:53;;;;;;;7.53;1.55;;;16.80;99.90;;;;;;5079837;28;20046;-72
2023/08/04 00:34:19;;;;;;;5.32;1.52;;;16.80;99.90;;;;;;5078682;28;20715;-71
2023/08/04 00:36:45;;;;;;;7.53;1.50;;;16.80;99.90;;;;;;5080956;28;20064;-71
2023/08/04 00:39:11;;;;;;;7.35;1.20;;;16.80;99.90;;;;;;5078416;28;20059;-72
2023/08/04 00:41:37;;;;;;;6.88;1.27;;;16.70;99.90;;;;;;5063087;28;20393;-71
2023/08/04 00:44:03;;;;;;;5.15;1.35;;;16.80;99.90;;;;;;5061419;28;20043;-72
2023/08/04 00:46:29;;;;;;;10.02;1.27;;;16.70;99.90;;;;;;5082174;28;20040;-71
2023/08/04 00:48:57;;;;;;;5.55;1.23;;;16.70;99.90;;;;;;5079351;28;20075;-70
2023/08/04 00:51:23;;;;;;;5.20;1.30;;;16.70;99.90;;;;;;5082291;28;20052;-71
2023/08/04 00:53:49;;;;;;;6.00;1.40;;;16.70;99.90;;;;;;5081009;28;20438;-71
2023/08/04 00:56:15;;;;;;;4.15;1.15;;;16.70;99.90;;;;;;5082581;28;20050;-71
2023/08/04 00:58:41;;;;;;;4.65;1.30;;;16.70;99.90;;;;;;5081963;28;20052;-71
2023/08/04 01:01:07;;;;;;;6.15;1.60;;;16.60;99.90;;;;;;5082131;28;20405;-72
2023/08/04 01:03:34;;;;;;;8.02;1.33;;;16.60;99.90;;;;;;5079976;28;20052;-71
2023/08/04 01:06:37;;;;;;;7.20;1.50;;;16.60;99.90;;;;;;5061443;28;20187;-71
2023/08/04 01:09:30;;;;;;;4.75;0.98;;;16.60;99.90;;;;;;5081081;28;20512;-70
2023/08/04 01:12:08;;;;;;;7.00;1.40;;;16.60;99.90;;;;;;5079094;28;20089;-72
2023/08/04 01:14:34;;;;;;;7.90;1.30;;;16.60;99.90;;;;;;5092881;28;20056;-72
2023/08/04 01:17:28;;;;;;;7.32;1.80;;;16.60;99.90;;;;;;5078845;28;20134;-71
2023/08/04 01:19:54;;;;;;;4.78;1.20;;;16.50;99.90;;;;;;5078190;28;20068;-71
2023/08/04 01:22:21;;;;;;;4.25;1.25;;;16.50;99.90;;;;;;5078847;28;20576;-71
2023/08/04 01:24:47;;;;;;;7.05;1.50;;;16.60;99.90;;;;;;5061856;28;20054;-71
2023/08/04 01:27:17;;;;;;;7.30;1.55;;;16.50;99.90;;;;;;5080068;28;20072;-71
2023/08/04 01:29:44;;;;;;;5.82;1.67;;;16.50;99.90;;;;;;5059943;28;20157;-71
2023/08/04 01:32:11;;;;;;;4.75;1.20;;;16.50;99.90;;;;;;5059777;28;20040;-71
2023/08/04 01:34:37;;;;;;;8.65;1.52;;;16.50;99.90;;;;;;5078765;28;20044;-71
2023/08/04 01:37:02;;;;;;;7.70;1.30;;;16.50;99.90;;;;;;5079472;28;20059;-72
2023/08/04 01:39:28;;;;;;;8.93;1.52;;;16.50;99.90;;;;;;5084087;28;20044;-72
2023/08/04 01:41:54;;;;;;;6.78;1.77;;;16.50;99.90;;;;;;5087199;28;20043;-72
2023/08/04 01:44:20;;;;;;;8.45;1.70;;;16.50;99.90;;;;;;5083401;28;20052;-72
2023/08/04 01:46:45;;;;;;;7.57;1.70;;;16.50;99.90;;;;;;5086231;28;20054;-72
2023/08/04 01:49:11;;;;;;;5.43;1.50;;;16.50;99.90;;;;;;5084997;28;20028;-72
2023/08/04 01:51:37;;;;;;;7.05;1.48;;;16.50;99.90;;;;;;5084266;28;20262;-72
2023/08/04 01:54:02;;;;;;;7.53;1.50;;;16.50;99.90;;;;;;5084336;28;20048;-72
2023/08/04 01:56:28;;;;;;;4.53;1.38;;;16.50;99.90;;;;;;5084805;28;20040;-72
2023/08/04 01:58:54;;;;;;;5.35;1.20;;;16.50;99.90;;;;;;5064578;28;20064;-72
2023/08/04 02:01:20;;;;;;;7.43;1.50;;;16.50;99.90;;;;;;5081414;28;20048;-72
2023/08/04 02:03:46;;;;;;;3.30;1.02;;;16.50;99.90;;;;;;5064504;28;20036;-72
2023/08/04 02:06:12;;;;;;;7.28;1.73;;;16.50;99.90;;;;;;5062723;28;20094;-72
2023/08/04 02:08:37;;;;;;;7.38;1.30;;;16.50;99.90;;;;;;5065980;28;20112;-72
2023/08/04 02:11:03;;;;;;;5.63;1.38;;;16.40;99.90;;;;;;5084220;28;20138;-72
2023/08/04 02:13:29;;;;;;;4.93;1.20;;;16.50;99.90;;;;;;5084243;28;20128;-72
2023/08/04 02:15:54;;;;;;;6.15;1.20;;;16.40;99.90;;;;;;5084253;28;20044;-74
2023/08/04 02:18:20;;;;;;;4.68;1.30;;;16.40;99.90;;;;;;5081301;28;20109;-73
2023/08/04 02:20:46;;;;;;;6.72;1.25;;;16.40;99.90;;;;;;5080543;28;20044;-73
2023/08/04 02:23:12;;;;;;;8.85;1.10;;;16.50;99.90;;;;;;5080185;28;20048;-72
2023/08/04 02:25:37;;;;;;;7.63;1.40;;;16.40;99.90;;;;;;5080559;28;20043;-71
2023/08/04 02:28:03;;;;;;;7.95;1.92;;;16.40;99.90;;;;;;5065045;28;20212;-72
2023/08/04 02:30:29;;;;;;;7.30;1.52;;;16.40;99.90;;;;;;5082955;28;20047;-72
2023/08/04 02:32:54;;;;;;;4.90;1.10;;;16.40;99.90;;;;;;5080229;28;20122;-72
2023/08/04 02:35:20;;;;;;;4.82;1.45;;;16.40;99.90;;;;;;5081483;28;20138;-72
2023/08/04 02:37:46;;;;;;;4.80;1.58;;;16.40;99.90;;;;;;5082482;28;20050;-72
2023/08/04 02:40:12;;;;;;;8.90;1.98;;;16.40;99.90;;;;;;5082274;28;20097;-72
2023/08/04 02:42:38;;;;;;;4.07;1.35;;;16.40;99.90;;;;;;5083980;28;20060;-71
2023/08/04 02:45:05;;;;;;;6.35;1.70;;;16.30;99.90;;;;;;5082969;28;20189;-72
2023/08/04 02:47:31;;;;;;;4.53;1.42;;;16.30;99.90;;;;;;5082804;28;20655;-72
2023/08/04 02:49:56;;;;;;;6.43;1.52;;;16.30;99.90;;;;;;5084550;28;20048;-71
2023/08/04 02:52:22;;;;;;;5.55;1.38;;;16.30;99.90;;;;;;5081779;28;20044;-72
2023/08/04 02:54:48;;;;;;;5.78;1.40;;;16.30;99.90;;;;;;5083963;28;20028;-72
2023/08/04 02:57:14;;;;;;;5.75;1.83;;;16.30;99.90;;;;;;5082504;28;20093;-72
2023/08/04 02:59:39;;;;;;;6.72;1.98;;;16.30;99.90;;;;;;5086261;28;20046;-72
2023/08/04 03:02:06;;;;;;;4.80;1.55;;;16.30;99.90;;;;;;5081134;28;20119;-71
2023/08/04 03:04:32;;;;;;;7.68;1.90;;;16.30;99.90;;;;;;5082234;28;20048;-72
2023/08/04 03:06:57;;;;;;;7.07;2.33;;;16.30;99.90;;;;;;5064292;28;20097;-72
2023/08/04 03:09:23;;;;;;;5.00;1.65;;;16.30;99.90;;;;;;5082089;28;20474;-72
2023/08/04 03:11:49;;;;;;;7.32;1.90;;;16.30;99.90;;;;;;5084455;28;20039;-73
2023/08/04 03:14:15;;;;;;;5.35;1.67;;;16.30;99.90;;;;;;5081068;28;20058;-73
2023/08/04 03:16:40;;;;;;;7.85;1.80;;;16.30;99.90;;;;;;5081534;28;20097;-72
2023/08/04 03:19:06;;;;;;;4.60;1.80;;;16.20;99.90;;;;;;5083144;28;20113;-72
2023/08/04 03:21:33;;;;;;;7.03;1.65;;;16.20;99.90;;;;;;5062405;28;20051;-72
2023/08/04 03:23:59;;;;;;;6.40;1.60;;;16.20;99.90;;;;;;5081535;28;20044;-72
2023/08/04 03:26:25;;;;;;;5.93;1.50;;;16.20;99.90;;;;;;5083469;28;20499;-72
2023/08/04 03:28:50;;;;;;;6.40;1.63;;;16.20;99.90;;;;;;5084211;28;20122;-73
2023/08/04 03:31:16;;;;;;;6.20;1.40;;;16.20;99.90;;;;;;5079311;28;20043;-72
2023/08/04 03:33:42;;;;;;;5.32;1.30;;;16.20;99.90;;;;;;5080341;28;20059;-72
2023/08/04 03:36:08;;;;;;;4.22;1.20;;;16.20;99.90;;;;;;5080562;28;20119;-72
2023/08/04 03:38:34;;;;;;;6.63;1.45;;;16.20;99.90;;;;;;5081148;28;20040;-72
2023/08/04 03:41:00;;;;;;;4.47;1.48;;;16.20;99.90;;;;;;5083194;28;20039;-72
2023/08/04 03:43:25;;;;;;;7.88;1.73;;;16.10;99.90;;;;;;5079198;28;20063;-72
2023/08/04 03:45:51;;;;;;;4.95;1.48;;;16.10;99.90;;;;;;5080868;28;20040;-72
2023/08/04 03:48:17;;;;;;;4.70;1.20;;;16.10;99.90;;;;;;5082987;28;20072;-72
2023/08/04 03:50:43;;;;;;;3.72;1.25;;;16.10;99.90;;;;;;5079597;28;20039;-72
2023/08/04 03:53:09;;;;;;;4.10;1.35;;;16.10;99.90;;;;;;5062751;28;20108;-72
2023/08/04 03:55:35;;;;;;;5.25;1.45;;;16.10;99.90;;;;;;5081070;28;20070;-72
2023/08/04 03:58:00;;;;;;;5.78;1.70;;;16.10;99.90;;;;;;5064066;28;20401;-71
2023/08/04 04:00:26;;;;;;;7.13;1.70;;;16.00;99.90;;;;;;5082373;28;20044;-71
2023/08/04 04:02:52;;;;;;;7.03;1.58;;;16.00;99.90;;;;;;5063607;28;20052;-71
2023/08/04 04:05:17;;;;;;;4.15;1.52;;;16.10;99.90;;;;;;5063878;28;20044;-72
2023/08/04 04:07:43;;;;;;;6.10;1.30;;;16.00;99.90;;;;;;5080011;28;20587;-71
2023/08/04 04:10:09;;;;;;;5.88;1.60;;;16.10;99.90;;;;;;5080237;28;20054;-70
2023/08/04 04:12:35;;;;;;;9.07;1.90;;;16.00;99.90;;;;;;5080297;28;20048;-71
2023/08/04 04:15:06;;;;;;;5.10;1.92;;;16.10;99.90;;;;;;5078689;28;20082;-71
2023/08/04 04:17:32;;;;;;;5.60;1.92;;;16.00;99.90;;;;;;5064057;28;21919;-71
2023/08/04 04:19:58;;;;;;;8.65;2.25;;;16.00;99.90;;;;;;5080581;28;20043;-70
2023/08/04 04:22:23;;;;;;;6.93;2.00;;;16.00;99.90;;;;;;5079597;28;20074;-70
2023/08/04 04:24:49;;;;;;;7.03;2.28;;;16.00;99.90;;;;;;5064364;28;20882;-70
2023/08/04 04:27:15;;;;;;;6.80;1.80;;;16.00;99.90;;;;;;5079215;28;20688;-71
2023/08/04 04:29:40;;;;;;;2.65;1.38;;;16.00;99.90;;;;;;5064427;28;20067;-71
2023/08/04 04:32:07;;;;;;;3.97;1.80;;;16.00;99.90;;;;;;5078842;28;20362;-71
2023/08/04 04:34:33;;;;;;;5.60;1.70;;;16.00;99.90;;;;;;5080682;28;20104;-71
2023/08/04 04:36:59;;;;;;;4.60;1.58;;;16.00;99.90;;;;;;5080430;28;20028;-71
2023/08/04 04:39:25;;;;;;;5.45;1.50;;;16.00;99.90;;;;;;5081311;28;20071;-72
2023/08/04 04:41:51;;;;;;;5.22;1.88;;;16.00;99.90;;;;;;5078063;28;20146;-72
2023/08/04 04:44:17;;;;;;;6.47;1.63;;;16.00;99.90;;;;;;5065484;28;20104;-73
2023/08/04 04:46:43;;;;;;;4.38;1.85;;;16.00;99.90;;;;;;5081251;28;20056;-73
2023/08/04 04:49:08;;;;;;;4.85;1.67;;;16.00;99.90;;;;;;5060143;28;20075;-71
2023/08/04 04:51:34;;;;;;;5.72;1.50;;;16.00;99.90;;;;;;5076306;28;20086;-71
2023/08/04 04:54:00;;;;;;;6.55;1.85;;;16.00;99.90;;;;;;5063511;28;20516;-72
2023/08/04 04:56:26;;;;;;;4.75;1.70;;;16.00;99.90;;;;;;5083495;28;20048;-73
2023/08/04 04:58:51;;;;;;;4.53;1.50;;;16.00;99.90;;;;;;5082001;28;20063;-72
2023/08/04 05:01:18;;;;;;;2.92;1.45;;;16.10;99.90;;;;;;5075980;28;20044;-72
2023/08/04 05:03:43;;;;;;;6.65;1.92;;;16.10;99.90;;;;;;5078214;28;20055;-72
2023/08/04 05:06:09;;;;;;;4.93;1.80;;;16.10;99.90;;;;;;5081347;28;20667;-72
2023/08/04 05:08:35;;;;;;;3.63;1.50;;;16.10;99.90;;;;;;5076308;28;20048;-71
2023/08/04 05:11:00;;;;;;;6.03;1.88;;;16.10;99.90;;;;;;5072394;28;20149;-72
2023/08/04 05:13:26;;;;;;;7.03;2.20;;;16.10;99.90;;;;;;5073044;28;20734;-71
2023/08/04 05:15:52;;;;;;;5.68;1.70;;;16.10;99.90;;;;;;5069505;28;20577;-70
2023/08/04 05:18:18;;;;;;;4.65;1.85;;;16.10;99.90;;;;;;5073315;28;20719;-71
2023/08/04 05:20:45;;;;;;;5.55;2.10;;;16.10;99.90;;;;;;5073276;28;20036;-71
2023/08/04 05:23:11;;;;;;;5.55;2.17;;;16.10;99.90;;;;;;5073877;28;20040;-73
2023/08/04 05:25:37;;;;;;;6.28;2.00;;;16.10;99.90;;;;;;5055156;28;20074;-73
2023/08/04 05:28:23;;;;;;;4.55;1.88;;;16.10;99.90;;;;;;5060646;28;20040;-72
2023/08/04 05:30:57;;;;;;;5.43;1.90;;;16.10;99.90;;;;;;5074491;28;20453;-73
2023/08/04 05:33:24;;;;;;;7.47;2.20;;;16.10;99.90;;;;;;5056178;28;20051;-73
2023/08/04 05:35:50;;;;;;;6.28;2.10;;;16.10;99.90;;;;;;5055683;28;20393;-72
2023/08/04 05:38:16;;;;;;;4.53;2.00;;;16.10;99.90;;;;;;5072789;28;20040;-72
2023/08/04 05:40:46;;;;;;;5.18;2.03;;;16.20;99.90;;;;;;5076015;28;20044;-72
2023/08/04 05:43:13;;;;;;;7.13;2.13;;;16.20;99.90;;;;;;5075583;28;20051;-71
2023/08/04 05:45:40;;;;;;;5.45;2.10;;;16.10;99.90;;;;;;5054348;28;20049;-72
2023/08/04 05:48:06;;;;;;;8.13;2.10;;;16.20;99.90;;;;;;5068680;28;20052;-72
2023/08/04 05:50:32;;;;;;;8.23;2.05;;;16.10;99.90;;;;;;5056528;28;20067;-72
2023/08/04 05:52:58;;;;;;;4.22;1.90;;;16.20;99.90;;;;;;5052358;28;20076;-72
2023/08/04 05:55:24;;;;;;;8.23;2.20;;;16.20;99.90;;;;;;5069602;28;20105;-72
2023/08/04 05:57:53;;;;;;;5.07;2.00;;;16.20;99.90;;;;;;5074961;28;20786;-72
2023/08/04 06:00:19;;;;;;;7.93;2.08;;;16.20;99.90;;;;;;5056812;28;20051;-71
2023/08/04 06:02:45;;;;;;;6.30;1.63;;;16.20;99.90;;;;;;5058006;28;20052;-71
2023/08/04 06:05:14;;;;;;;3.42;1.70;;;16.30;99.90;;;;;;5055557;28;20055;-71
2023/08/04 06:07:40;;;;;;;7.88;1.88;;;16.30;99.90;;;;;;5080439;28;20036;-71
2023/08/04 06:10:07;;;;;;;8.30;2.10;;;16.30;99.90;;;;;;5084297;28;20047;-71
2023/08/04 06:12:33;;;;;;;7.53;2.30;;;16.30;99.90;;;;;;5084275;28;20208;-71
2023/08/04 06:14:59;;;;;;;6.20;2.03;;;16.30;99.90;;;;;;5064009;28;20045;-71
2023/08/04 06:17:25;;;;;;;4.60;1.95;;;16.30;99.90;;;;;;5083894;28;20472;-71
2023/08/04 06:19:51;;;;;;;8.15;2.40;;;16.30;99.90;;;;;;5066748;28;20071;-71
2023/08/04 06:22:17;;;;;;;5.15;2.08;;;16.30;99.90;;;;;;5062327;28;20048;-71
2023/08/04 06:24:43;;;;;;;8.60;2.50;;;16.30;99.90;;;;;;5073765;28;20089;-71
2023/08/04 06:27:08;;;;;;;6.38;1.80;;;16.40;99.90;;;;;;5087116;28;20044;-70
2023/08/04 06:29:35;;;;;;;4.63;2.10;;;16.40;99.90;;;;;;5085719;28;20857;-71
2023/08/04 06:32:01;;;;;;;4.88;2.03;;;16.50;99.90;;;;;;5078993;28;20048;-72
2023/08/04 06:34:27;;;;;;;7.00;2.50;;;16.40;99.90;;;;;;5080283;28;20109;-74
2023/08/04 06:36:53;;;;;;;4.68;2.10;;;16.50;99.90;;;;;;5086947;28;20044;-73
2023/08/04 06:39:18;;;;;;;6.25;2.20;;;16.50;99.90;;;;;;5085480;28;20044;-73
2023/08/04 06:41:44;;;;;;;7.03;2.35;;;16.50;99.90;;;;;;5068877;28;20909;-73
2023/08/04 06:44:13;;;;;;;9.32;2.10;;;16.50;99.90;;;;;;5085937;28;20035;-73
2023/08/04 06:46:38;;;;;;;7.43;2.30;;;16.60;99.90;;;;;;5082279;28;20070;-73
2023/08/04 06:49:04;;;;;;;9.48;1.98;;;16.60;99.90;;;;;;5066087;28;20048;-73
2023/08/04 06:51:30;;;;;;;5.93;2.05;;;16.60;99.90;;;;;;5069011;28;20044;-73
2023/08/04 06:53:56;;;;;;;8.60;2.83;;;16.70;99.90;;;;;;5087573;28;20450;-73
2023/08/04 06:56:22;;;;;;;5.97;2.05;;;16.70;99.90;;;;;;5083011;28;20044;-73
2023/08/04 06:58:48;;;;;;;4.93;1.75;;;16.70;99.90;;;;;;5069750;28;20401;-72
2023/08/04 07:01:14;;;;;;;10.27;2.30;;;16.80;99.90;;;;;;5086776;28;20085;-73
2023/08/04 07:03:40;;;;;;;7.68;2.65;;;16.80;99.90;;;;;;5088177;28;20440;-73
2023/08/04 07:06:06;;;;;;;7.45;2.22;;;16.80;99.90;;;;;;5069762;28;20036;-72
2023/08/04 07:08:31;;;;;;;5.75;2.05;;;16.80;99.90;;;;;;5086859;28;20063;-73
2023/08/04 07:10:57;;;;;;;5.28;2.20;;;16.90;99.90;;;;;;5088120;28;20134;-73
2023/08/04 07:13:23;;;;;;;7.53;2.47;;;16.90;99.90;;;;;;5067821;28;20063;-73
2023/08/04 07:15:58;;;;;;;8.13;3.05;;;16.90;99.90;;;;;;5082551;28;20048;-73
2023/08/04 07:18:25;;;;;;;6.10;1.80;;;17.00;99.90;;;;;;5066497;28;20076;-73
2023/08/04 07:20:51;;;;;;;7.68;2.10;;;17.00;99.90;;;;;;5086147;28;20114;-73
2023/08/04 07:23:17;;;;;;;7.47;1.63;;;16.90;99.90;;;;;;5086929;28;20529;-73
2023/08/04 07:25:43;;;;;;;6.78;1.90;;;17.00;99.90;;;;;;5083018;28;20040;-73
2023/08/04 07:28:08;;;;;;;4.93;1.98;;;17.10;99.90;;;;;;5084226;28;20036;-73
2023/08/04 07:30:38;;;;;;;6.72;1.88;;;17.10;99.90;;;;;;5086657;28;20537;-72
2023/08/04 07:33:06;;;;;;;9.10;1.95;;;17.20;99.90;;;;;;5088017;28;20044;-72
2023/08/04 07:35:33;;;;;;;10.35;2.17;;;17.20;99.90;;;;;;5087370;28;20202;-72
2023/08/04 07:37:58;;;;;;;7.20;1.90;;;17.20;99.90;;;;;;5068691;28;20040;-72
2023/08/04 07:40:24;;;;;;;12.68;2.38;;;17.20;99.90;;;;;;5087901;28;20040;-72
2023/08/04 07:42:50;;;;;;;12.75;2.20;;;17.20;99.90;;;;;;5087971;28;20042;-72
2023/08/04 07:45:16;;;;;;;7.47;1.75;;;17.30;99.90;;;;;;5087468;28;20131;-73
2023/08/04 07:47:42;;;;;;;8.45;1.90;;;17.30;99.90;;;;;;5086694;28;20128;-73
2023/08/04 07:50:08;;;;;;;9.65;1.92;;;17.30;99.90;;;;;;5082944;28;20047;-71
2023/08/04 07:52:34;;;;;;;7.68;2.45;;;17.40;99.90;;;;;;5086790;28;20076;-71
2023/08/04 07:54:59;;;;;;;5.10;1.52;;;17.40;99.90;;;;;;5086011;28;20079;-72
2023/08/04 07:57:25;;;;;;;6.88;1.60;;;17.40;99.90;;;;;;5087841;28;20089;-71
2023/08/04 07:59:51;;;;;;;8.00;1.83;;;17.50;99.90;;;;;;5076472;28;20103;-73
2023/08/04 08:02:17;;;;;;;7.47;1.83;;;17.40;99.90;;;;;;5084341;28;20054;-72
2023/08/04 08:04:42;;;;;;;10.38;2.22;;;17.40;99.90;;;;;;5076710;28;20397;-72
2023/08/04 08:07:08;;;;;;;7.25;1.77;;;17.40;99.90;;;;;;5082918;28;20071;-72
2023/08/04 08:09:34;;;;;;;6.45;1.90;;;17.40;99.90;;;;;;5085449;28;20617;-72
2023/08/04 08:11:59;;;;;;;6.57;1.67;;;17.40;99.90;;;;;;5087123;28;20508;-72
2023/08/04 08:14:25;;;;;;;7.22;1.73;;;17.40;99.90;;;;;;5084962;28;20046;-72
2023/08/04 08:16:51;;;;;;;6.18;1.75;;;17.40;99.90;;;;;;5065225;28;20086;-73
2023/08/04 08:19:17;;;;;;;9.48;2.22;;;17.50;99.90;;;;;;5068499;28;20054;-74
2023/08/04 08:21:43;;;;;;;7.03;2.00;;;17.60;99.90;;;;;;5081481;28;20068;-74
2023/08/04 08:24:09;;;;;;;8.85;1.50;;;17.80;99.90;;;;;;5081135;28;20097;-74
2023/08/04 08:26:35;;;;;;;9.40;2.58;;;17.90;99.90;;;;;;5084480;28;20052;-73
2023/08/04 08:29:04;;;;;;;9.38;2.38;;;17.90;99.90;;;;;;5068117;28;20051;-73
2023/08/04 08:31:30;;;;;;;8.50;2.13;;;18.00;99.90;;;;;;5085012;28;20047;-74
2023/08/04 08:33:56;;;;;;;6.00;1.60;;;18.10;99.90;;;;;;5085264;28;20032;-73
2023/08/04 08:36:22;;;;;;;8.70;1.85;;;18.10;99.90;;;;;;5068690;28;20050;-73
2023/08/04 08:38:47;;;;;;;9.90;2.05;;;18.10;99.90;;;;;;5065079;28;20447;-72
2023/08/04 08:41:13;;;;;;;5.68;1.35;;;18.00;99.90;;;;;;5064782;28;20143;-73
2023/08/04 08:43:44;;;;;;;7.63;1.92;;;18.00;99.90;;;;;;5083636;28;20043;-73
2023/08/04 08:46:11;;;;;;;9.35;1.63;;;18.00;99.90;;;;;;5075891;28;20083;-73
2023/08/04 08:48:38;;;;;;;8.00;1.75;;;18.00;99.90;;;;;;5080934;28;20040;-74
2023/08/04 08:51:08;;;;;;;12.13;2.28;;;17.90;99.90;;;;;;5084137;28;20053;-74
2023/08/04 08:53:34;;;;;;;9.27;1.77;;;17.90;99.90;;;;;;5081822;28;20044;-73
2023/08/04 08:56:01;;;;;;;8.25;1.80;;;17.90;99.90;;;;;;5067860;28;20055;-73
2023/08/04 08:58:30;;;;;;;10.93;2.10;;;17.90;99.90;;;;;;5084827;28;20040;-73
2023/08/04 09:00:56;;;;;;;9.30;1.98;;;17.90;99.90;;;;;;5082820;28;20034;-73
2023/08/04 09:03:22;;;;;;;8.65;1.80;;;17.90;99.90;;;;;;5079926;28;20047;-72
2023/08/04 09:05:50;;;;;;;12.13;2.63;;;17.90;99.90;;;;;;5085374;28;20114;-73
2023/08/04 09:08:16;;;;;;;10.57;2.60;;;17.90;99.90;;;;;;5085324;28;20036;-73
2023/08/04 09:10:44;;;;;;;11.73;2.30;;;18.00;99.90;;;;;;5086314;28;20093;-72
2023/08/04 09:13:11;;;;;;;8.57;1.83;;;18.00;99.90;;;;;;5085113;28;20606;-73
2023/08/04 09:16:08;;;;;;;11.25;1.95;;;18.00;99.90;;;;;;5086399;28;20044;-73
2023/08/04 09:18:39;;;;;;;5.13;1.30;;;18.10;99.90;;;;;;5045650;28;20086;-73
2023/08/04 09:21:07;;;;;;;8.93;1.80;;;18.10;99.90;;;;;;5082451;28;20135;-73
2023/08/04 09:23:42;;;;;;;11.25;1.77;;;18.10;99.90;;;;;;5082536;28;20519;-73
2023/08/04 09:26:08;;;;;;;12.68;2.03;;;18.10;99.90;;;;;;5084396;28;20048;-73
2023/08/04 09:28:34;;;;;;;8.60;1.80;;;18.10;99.90;;;;;;5076738;28;20396;-72
2023/08/04 09:31:07;;;;;;;10.02;1.95;;;18.10;99.90;;;;;;5081113;28;20052;-73
2023/08/04 09:33:36;;;;;;;10.98;1.80;;;18.20;99.90;;;;;;5085274;28;20401;-74
2023/08/04 09:36:07;;;;;;;8.32;1.90;;;18.30;99.90;;;;;;5081300;28;20113;-74
2023/08/04 09:38:34;;;;;;;7.35;1.98;;;18.30;99.90;;;;;;5082146;28;20052;-73
2023/08/04 09:41:10;;;;;;;9.05;2.00;;;18.40;99.90;;;;;;5083358;28;20085;-73
2023/08/04 09:43:49;;;;;;;8.23;1.85;;;18.40;99.90;;;;;;5082269;28;20055;-73
2023/08/04 09:46:16;;;;;;;8.85;2.00;;;18.50;99.90;;;;;;5081490;28;20755;-73
2023/08/04 09:48:42;;;;;;;10.20;1.92;;;18.50;99.90;;;;;;5067043;28;20051;-73
2023/08/04 09:51:11;;;;;;;8.85;1.70;;;18.40;99.90;;;;;;5067349;28;20081;-73
2023/08/04 09:53:48;;;;;;;11.00;2.15;;;18.50;99.90;;;;;;5081885;28;20189;-73
2023/08/04 09:56:16;;;;;;;10.18;2.60;;;18.40;99.90;;;;;;5075056;28;20076;-73
2023/08/04 09:58:42;;;;;;;9.98;2.10;;;18.50;99.90;;;;;;5085428;28;20040;-72
2023/08/04 10:01:08;;;;;;;6.22;1.60;;;18.50;99.90;;;;;;5085837;28;20560;-72
2023/08/04 10:03:36;;;;;;;8.77;2.28;;;18.60;99.90;;;;;;5089564;28;20039;-73
2023/08/04 10:06:03;;;;;;;8.07;1.73;;;18.60;99.90;;;;;;5080165;28;20056;-73
2023/08/04 10:08:39;;;;;;;10.75;1.92;;;18.70;99.90;;;;;;5069424;28;20044;-71
2023/08/04 10:11:06;;;;;;;7.55;1.50;;;18.70;99.90;;;;;;5100400;28;20083;-72
2023/08/04 10:13:42;;;;;;;8.40;1.55;;;18.70;99.90;;;;;;5088492;28;20790;-72
2023/08/04 10:16:13;;;;;;;12.15;1.95;;;18.70;99.90;;;;;;5066341;28;20051;-72
2023/08/04 10:18:55;;;;;;;10.68;1.75;;;18.80;99.90;;;;;;5071176;28;20127;-72
2023/08/04 10:21:25;;;;;;;4.75;1.30;;;18.80;99.90;;;;;;5089064;28;20051;-72
2023/08/04 10:23:52;;;;;;;3.75;1.10;;;18.80;99.90;;;;;;5068521;28;20052;-71
2023/08/04 10:26:19;;;;;;;5.40;1.50;;;18.90;99.90;;;;;;5086548;28;20071;-72
2023/08/04 10:29:03;;;;;;;6.28;1.38;;;18.90;99.90;;;;;;5068337;28;20062;-72
2023/08/04 10:31:44;;;;;;;7.82;1.30;;;18.90;99.90;;;;;;5068061;28;20051;-72
2023/08/04 10:34:28;;;;;;;4.30;1.27;;;19.10;99.90;;;;;;5086649;28;20054;-72
2023/08/04 10:37:18;;;;;;;4.25;1.13;;;19.20;99.90;;;;;;5065988;28;20604;-71
2023/08/04 10:40:05;;;;;;;7.18;1.33;;;19.10;99.90;;;;;;5082534;28;20055;-72
2023/08/04 10:42:31;;;;;;;7.60;1.33;;;19.10;99.90;;;;;;5085038;28;20056;-71
2023/08/04 10:45:08;;;;;;;4.90;1.42;;;19.10;99.90;;;;;;5083533;28;20040;-72
2023/08/04 10:47:40;;;;;;;5.35;1.50;;;19.20;99.90;;;;;;5064716;28;20070;-72
2023/08/04 10:50:07;;;;;;;4.72;1.17;;;19.20;99.90;;;;;;5069723;28;20056;-71
2023/08/04 10:52:35;;;;;;;4.57;1.20;;;19.20;99.90;;;;;;5084260;28;20054;-71
2023/08/04 10:55:03;;;;;;;10.90;1.70;;;19.20;99.90;;;;;;5083871;28;20078;-72
2023/08/04 10:57:33;;;;;;;5.57;1.35;;;19.30;99.90;;;;;;5084688;28;20044;-72
2023/08/04 11:00:00;;;;;;;7.05;1.83;;;19.30;99.90;;;;;;5083225;28;20063;-72
2023/08/04 11:02:26;;;;;;;7.22;1.30;;;19.50;99.90;;;;;;5070743;28;20050;-71
2023/08/04 11:04:53;;;;;;;7.30;1.23;;;19.50;99.90;;;;;;5070876;28;20440;-71
2023/08/04 11:07:22;;;;;;;7.88;1.08;;;19.50;99.90;;;;;;5083651;28;20040;-71
2023/08/04 11:09:49;;;;;;;6.30;1.30;;;19.50;99.90;;;;;;5084477;28;20404;-72
2023/08/04 11:12:15;;;;;;;4.47;1.35;;;19.40;99.90;;;;;;5068507;28;20048;-71
2023/08/04 11:14:42;;;;;;;5.57;1.30;;;19.40;99.90;;;;;;5086209;28;20040;-72
2023/08/04 11:17:12;;;;;;;3.15;1.00;;;19.40;99.90;;;;;;5085958;28;20036;-71
2023/08/04 11:19:38;;;;;;;3.87;1.10;;;19.40;99.90;;;;;;5083077;28;20132;-70
2023/08/04 11:22:08;;;;;;;2.83;0.90;;;19.30;99.90;;;;;;5085405;28;20879;-71
2023/08/04 11:24:34;;;;;;;2.75;0.93;;;19.30;99.90;;;;;;5081909;28;20086;-71
2023/08/04 11:26:59;;;;;;;5.22;1.20;;;19.30;99.90;;;;;;5084278;28;20131;-72
2023/08/04 11:29:25;;;;;;;3.13;0.70;;;19.30;99.90;;;;;;5085882;28;20052;-71
2023/08/04 11:31:53;;;;;;;4.30;0.98;;;19.30;99.90;;;;;;5088252;28;20103;-72
2023/08/04 11:34:19;;;;;;;7.65;1.10;;;19.20;99.90;;;;;;5086810;28;20100;-72
2023/08/04 11:36:45;;;;;;;5.25;1.20;;;19.30;99.90;;;;;;5068829;28;20052;-72
2023/08/04 11:39:11;;;;;;;4.63;1.15;;;19.20;99.90;;;;;;5086368;28;20032;-72
2023/08/04 11:41:37;;;;;;;5.80;1.30;;;19.20;99.90;;;;;;5088357;28;20397;-72
2023/08/04 11:44:04;;;;;;;5.32;1.10;;;19.20;99.90;;;;;;5083918;28;20054;-72
2023/08/04 11:46:30;;;;;;;6.78;1.20;;;19.30;99.90;;;;;;5088015;28;20139;-72
2023/08/04 11:48:56;;;;;;;4.53;1.30;;;19.40;99.90;;;;;;5087886;28;20122;-72
2023/08/04 11:51:22;;;;;;;3.20;1.10;;;19.40;99.90;;;;;;5087622;28;20101;-71
2023/08/04 11:53:49;;;;;;;4.72;1.30;;;19.40;99.90;;;;;;5085465;28;20052;-71
2023/08/04 11:56:15;;;;;;;4.22;1.30;;;19.40;99.90;;;;;;5086579;28;20121;-71
2023/08/04 11:58:43;;;;;;;8.65;1.95;;;19.40;99.90;;;;;;5086188;28;20115;-72
2023/08/04 12:01:30;;;;;;;10.95;1.65;;;19.40;99.90;;;;;;5086163;28;20508;-72
2023/08/04 12:03:56;;;;;;;6.10;1.40;;;19.40;99.90;;;;;;5085282;28;20048;-71
2023/08/04 12:06:23;;;;;;;6.13;1.40;;;19.30;99.90;;;;;;5069172;28;20530;-71
2023/08/04 12:08:50;;;;;;;7.65;1.50;;;19.30;99.90;;;;;;5086995;28;20072;-70
2023/08/04 12:11:17;;;;;;;6.85;1.50;;;19.30;99.90;;;;;;5063191;28;20044;-71
2023/08/04 12:13:43;;;;;;;6.15;1.27;;;19.30;99.90;;;;;;5081194;28;20036;-71
2023/08/04 12:16:09;;;;;;;8.00;1.67;;;19.30;99.90;;;;;;5085742;28;20576;-71
2023/08/04 12:18:35;;;;;;;6.07;1.77;;;19.30;99.90;;;;;;5066619;28;20044;-71
2023/08/04 12:21:01;;;;;;;6.00;1.52;;;19.40;99.90;;;;;;5068850;28;20040;-70
2023/08/04 12:23:27;;;;;;;3.92;1.30;;;19.40;99.90;;;;;;5085398;28;20052;-70
2023/08/04 12:25:53;;;;;;;6.78;1.48;;;19.40;99.90;;;;;;5086057;28;20032;-71
2023/08/04 12:28:19;;;;;;;3.90;1.42;;;19.40;99.90;;;;;;5065875;28;20055;-71
2023/08/04 12:30:44;;;;;;;6.25;1.95;;;19.50;99.90;;;;;;5085881;28;20773;-71
2023/08/04 12:33:10;;;;;;;10.75;1.50;;;19.50;99.90;;;;;;5068736;28;20509;-71
2023/08/04 12:35:36;;;;;;;6.05;1.35;;;19.50;99.90;;;;;;5081929;28;20068;-71
2023/08/04 12:38:04;;;;;;;7.28;1.52;;;19.50;99.90;;;;;;5064925;28;20039;-71
2023/08/04 12:40:34;;;;;;;6.63;1.40;;;19.50;99.90;;;;;;5068491;28;20123;-71
2023/08/04 12:43:01;;;;;;;7.80;1.60;;;19.40;99.90;;;;;;5087235;28;20039;-71
2023/08/04 12:45:26;;;;;;;6.53;1.98;;;19.40;99.90;;;;;;5068292;28;20782;-72